sensor_id;sensor_type;location;lat;lon;timestamp;P1;durP1;ratioP1;P2;durP2;ratioP2
69188;SDS011;56302;52.322;5.926;2023-02-11T00:00:38;12.80;;;3.57;;
69188;SDS011;56302;52.322;5.926;2023-02-11T00:03:06;15.95;;;4.10;;
69188;SDS011;56302;52.322;5.926;2023-02-11T00:05:32;18.50;;;4.20;;
69188;SDS011;56302;52.322;5.926;2023-02-11T00:07:58;14.90;;;3.92;;
69188;SDS011;56302;52.322;5.926;2023-02-11T00:10:23;19.33;;;4.40;;
69188;SDS011;56302;52.322;5.926;2023-02-11T00:12:49;17.40;;;4.03;;
69188;SDS011;56302;52.322;5.926;2023-02-11T00:15:14;17.95;;;4.65;;
69188;SDS011;56302;52.322;5.926;2023-02-11T00:17:40;15.90;;;3.87;;
69188;SDS011;56302;52.322;5.926;2023-02-11T00:20:06;21.97;;;4.47;;
69188;SDS011;56302;52.322;5.926;2023-02-11T00:22:31;19.48;;;3.80;;
69188;SDS011;56302;52.322;5.926;2023-02-11T00:24:57;17.27;;;4.50;;
69188;SDS011;56302;52.322;5.926;2023-02-11T00:27:23;15.17;;;3.47;;
69188;SDS011;56302;52.322;5.926;2023-02-11T00:29:48;20.43;;;4.10;;
69188;SDS011;56302;52.322;5.926;2023-02-11T00:32:14;12.98;;;3.60;;
69188;SDS011;56302;52.322;5.926;2023-02-11T00:34:39;19.10;;;4.10;;
69188;SDS011;56302;52.322;5.926;2023-02-11T00:37:05;17.23;;;3.70;;
69188;SDS011;56302;52.322;5.926;2023-02-11T00:39:30;12.67;;;3.47;;
69188;SDS011;56302;52.322;5.926;2023-02-11T00:41:56;18.98;;;3.65;;
69188;SDS011;56302;52.322;5.926;2023-02-11T00:44:22;20.92;;;4.00;;
69188;SDS011;56302;52.322;5.926;2023-02-11T00:46:48;16.17;;;3.73;;
69188;SDS011;56302;52.322;5.926;2023-02-11T00:49:13;17.23;;;3.47;;
69188;SDS011;56302;52.322;5.926;2023-02-11T00:51:39;14.60;;;4.07;;
69188;SDS011;56302;52.322;5.926;2023-02-11T00:54:06;20.58;;;3.65;;
69188;SDS011;56302;52.322;5.926;2023-02-11T00:56:32;18.40;;;3.65;;
69188;SDS011;56302;52.322;5.926;2023-02-11T00:58:58;18.00;;;5.03;;
69188;SDS011;56302;52.322;5.926;2023-02-11T01:01:23;16.57;;;3.97;;
69188;SDS011;56302;52.322;5.926;2023-02-11T01:03:49;20.05;;;3.78;;
69188;SDS011;56302;52.322;5.926;2023-02-11T01:06:15;15.70;;;4.00;;
69188;SDS011;56302;52.322;5.926;2023-02-11T01:08:41;20.63;;;3.67;;
69188;SDS011;56302;52.322;5.926;2023-02-11T01:11:09;17.08;;;4.18;;
69188;SDS011;56302;52.322;5.926;2023-02-11T01:13:40;20.33;;;4.13;;
69188;SDS011;56302;52.322;5.926;2023-02-11T01:16:07;18.73;;;4.68;;
69188;SDS011;56302;52.322;5.926;2023-02-11T01:18:34;16.10;;;4.53;;
69188;SDS011;56302;52.322;5.926;2023-02-11T01:20:59;14.40;;;4.37;;
69188;SDS011;56302;52.322;5.926;2023-02-11T01:23:25;19.27;;;4.68;;
69188;SDS011;56302;52.322;5.926;2023-02-11T01:25:51;23.60;;;4.93;;
69188;SDS011;56302;52.322;5.926;2023-02-11T01:28:17;24.23;;;4.53;;
69188;SDS011;56302;52.322;5.926;2023-02-11T01:30:51;16.83;;;4.40;;
69188;SDS011;56302;52.322;5.926;2023-02-11T01:33:17;24.65;;;5.20;;
69188;SDS011;56302;52.322;5.926;2023-02-11T01:35:43;19.77;;;4.32;;
69188;SDS011;56302;52.322;5.926;2023-02-11T01:38:16;21.38;;;5.35;;
69188;SDS011;56302;52.322;5.926;2023-02-11T01:40:48;16.30;;;4.38;;
69188;SDS011;56302;52.322;5.926;2023-02-11T01:43:15;22.43;;;4.57;;
69188;SDS011;56302;52.322;5.926;2023-02-11T01:48:10;21.52;;;5.43;;
69188;SDS011;56302;52.322;5.926;2023-02-11T01:50:39;19.60;;;5.50;;
69188;SDS011;56302;52.322;5.926;2023-02-11T01:53:06;28.20;;;5.05;;
69188;SDS011;56302;52.322;5.926;2023-02-11T01:55:52;17.75;;;5.32;;
69188;SDS011;56302;52.322;5.926;2023-02-11T01:58:38;26.48;;;4.95;;
69188;SDS011;56302;52.322;5.926;2023-02-11T02:01:08;21.95;;;5.18;;
69188;SDS011;56302;52.322;5.926;2023-02-11T02:03:36;18.73;;;4.60;;
69188;SDS011;56302;52.322;5.926;2023-02-11T02:06:28;25.95;;;5.47;;
69188;SDS011;56302;52.322;5.926;2023-02-11T02:09:03;25.83;;;5.50;;
69188;SDS011;56302;52.322;5.926;2023-02-11T02:11:33;17.02;;;4.78;;
69188;SDS011;56302;52.322;5.926;2023-02-11T02:13:59;21.92;;;4.55;;
69188;SDS011;56302;52.322;5.926;2023-02-11T02:16:27;16.53;;;5.03;;
69188;SDS011;56302;52.322;5.926;2023-02-11T02:27:12;22.58;;;5.38;;
69188;SDS011;56302;52.322;5.926;2023-02-11T02:38:45;16.93;;;4.93;;
69188;SDS011;56302;52.322;5.926;2023-02-11T02:41:27;19.45;;;6.05;;
69188;SDS011;56302;52.322;5.926;2023-02-11T02:43:56;22.85;;;5.85;;
69188;SDS011;56302;52.322;5.926;2023-02-11T02:46:24;19.00;;;6.03;;
69188;SDS011;56302;52.322;5.926;2023-02-11T02:48:51;24.73;;;5.53;;
69188;SDS011;56302;52.322;5.926;2023-02-11T02:51:26;22.27;;;6.30;;
69188;SDS011;56302;52.322;5.926;2023-02-11T02:59:51;20.02;;;5.03;;
69188;SDS011;56302;52.322;5.926;2023-02-11T03:02:43;23.33;;;5.88;;
69188;SDS011;56302;52.322;5.926;2023-02-11T03:05:36;36.10;;;6.83;;
69188;SDS011;56302;52.322;5.926;2023-02-11T03:10:45;19.98;;;5.32;;
69188;SDS011;56302;52.322;5.926;2023-02-11T03:13:14;24.60;;;6.70;;
69188;SDS011;56302;52.322;5.926;2023-02-11T03:15:43;17.83;;;5.70;;
69188;SDS011;56302;52.322;5.926;2023-02-11T03:18:13;22.10;;;6.00;;
69188;SDS011;56302;52.322;5.926;2023-02-11T03:20:41;20.30;;;5.88;;
69188;SDS011;56302;52.322;5.926;2023-02-11T03:23:10;19.75;;;5.40;;
69188;SDS011;56302;52.322;5.926;2023-02-11T03:25:47;18.70;;;5.85;;
69188;SDS011;56302;52.322;5.926;2023-02-11T03:31:07;23.50;;;6.37;;
69188;SDS011;56302;52.322;5.926;2023-02-11T03:34:01;21.25;;;5.85;;
69188;SDS011;56302;52.322;5.926;2023-02-11T03:36:40;24.77;;;6.22;;
69188;SDS011;56302;52.322;5.926;2023-02-11T03:39:13;22.27;;;6.25;;
69188;SDS011;56302;52.322;5.926;2023-02-11T03:41:44;34.03;;;6.38;;
69188;SDS011;56302;52.322;5.926;2023-02-11T03:44:12;23.20;;;6.83;;
69188;SDS011;56302;52.322;5.926;2023-02-11T03:46:41;27.60;;;6.45;;
69188;SDS011;56302;52.322;5.926;2023-02-11T03:49:17;30.55;;;6.55;;
69188;SDS011;56302;52.322;5.926;2023-02-11T03:51:45;21.73;;;7.57;;
69188;SDS011;56302;52.322;5.926;2023-02-11T03:54:15;24.20;;;6.95;;
69188;SDS011;56302;52.322;5.926;2023-02-11T03:56:48;20.73;;;6.17;;
69188;SDS011;56302;52.322;5.926;2023-02-11T03:59:16;28.55;;;6.85;;
69188;SDS011;56302;52.322;5.926;2023-02-11T04:01:42;18.42;;;6.50;;
69188;SDS011;56302;52.322;5.926;2023-02-11T04:04:07;21.03;;;6.77;;
69188;SDS011;56302;52.322;5.926;2023-02-11T04:06:33;24.23;;;7.50;;
69188;SDS011;56302;52.322;5.926;2023-02-11T04:08:58;22.13;;;6.97;;
69188;SDS011;56302;52.322;5.926;2023-02-11T04:11:24;21.10;;;6.37;;
69188;SDS011;56302;52.322;5.926;2023-02-11T04:13:50;27.53;;;7.23;;
69188;SDS011;56302;52.322;5.926;2023-02-11T04:16:15;22.20;;;6.97;;
69188;SDS011;56302;52.322;5.926;2023-02-11T04:18:41;20.53;;;6.43;;
69188;SDS011;56302;52.322;5.926;2023-02-11T04:21:06;25.67;;;6.97;;
69188;SDS011;56302;52.322;5.926;2023-02-11T04:23:32;23.85;;;7.25;;
69188;SDS011;56302;52.322;5.926;2023-02-11T04:25:57;26.63;;;7.10;;
69188;SDS011;56302;52.322;5.926;2023-02-11T04:28:23;24.35;;;6.97;;
69188;SDS011;56302;52.322;5.926;2023-02-11T04:30:50;26.43;;;7.47;;
69188;SDS011;56302;52.322;5.926;2023-02-11T04:33:16;26.70;;;7.28;;
69188;SDS011;56302;52.322;5.926;2023-02-11T04:35:41;21.30;;;7.13;;
69188;SDS011;56302;52.322;5.926;2023-02-11T04:38:07;20.80;;;7.83;;
69188;SDS011;56302;52.322;5.926;2023-02-11T04:40:32;21.60;;;7.57;;
69188;SDS011;56302;52.322;5.926;2023-02-11T04:42:58;23.93;;;7.60;;
69188;SDS011;56302;52.322;5.926;2023-02-11T04:45:23;29.87;;;7.57;;
69188;SDS011;56302;52.322;5.926;2023-02-11T04:47:49;20.63;;;7.18;;
69188;SDS011;56302;52.322;5.926;2023-02-11T04:50:14;21.10;;;6.57;;
69188;SDS011;56302;52.322;5.926;2023-02-11T04:52:40;22.53;;;7.63;;
69188;SDS011;56302;52.322;5.926;2023-02-11T04:55:06;24.38;;;7.55;;
69188;SDS011;56302;52.322;5.926;2023-02-11T04:57:31;25.23;;;7.10;;
69188;SDS011;56302;52.322;5.926;2023-02-11T04:59:57;25.37;;;7.63;;
69188;SDS011;56302;52.322;5.926;2023-02-11T05:02:22;24.27;;;7.75;;
69188;SDS011;56302;52.322;5.926;2023-02-11T05:04:48;29.33;;;7.73;;
69188;SDS011;56302;52.322;5.926;2023-02-11T05:07:13;23.07;;;7.20;;
69188;SDS011;56302;52.322;5.926;2023-02-11T05:09:39;21.05;;;7.43;;
69188;SDS011;56302;52.322;5.926;2023-02-11T05:12:04;20.53;;;7.40;;
69188;SDS011;56302;52.322;5.926;2023-02-11T05:14:30;25.23;;;7.57;;
69188;SDS011;56302;52.322;5.926;2023-02-11T05:16:56;23.60;;;7.93;;
69188;SDS011;56302;52.322;5.926;2023-02-11T05:19:21;22.33;;;7.83;;
69188;SDS011;56302;52.322;5.926;2023-02-11T05:21:47;22.05;;;7.70;;
69188;SDS011;56302;52.322;5.926;2023-02-11T05:24:12;22.60;;;7.63;;
69188;SDS011;56302;52.322;5.926;2023-02-11T05:26:38;23.33;;;7.83;;
69188;SDS011;56302;52.322;5.926;2023-02-11T05:29:03;22.50;;;8.37;;
69188;SDS011;56302;52.322;5.926;2023-02-11T05:31:29;22.98;;;7.80;;
69188;SDS011;56302;52.322;5.926;2023-02-11T05:33:54;27.53;;;9.50;;
69188;SDS011;56302;52.322;5.926;2023-02-11T05:36:20;27.47;;;9.00;;
69188;SDS011;56302;52.322;5.926;2023-02-11T05:38:45;24.02;;;8.85;;
69188;SDS011;56302;52.322;5.926;2023-02-11T05:41:11;31.97;;;9.37;;
69188;SDS011;56302;52.322;5.926;2023-02-11T05:43:37;29.65;;;10.07;;
69188;SDS011;56302;52.322;5.926;2023-02-11T05:46:03;33.90;;;10.13;;
69188;SDS011;56302;52.322;5.926;2023-02-11T05:48:29;21.38;;;9.20;;
69188;SDS011;56302;52.322;5.926;2023-02-11T05:50:55;27.48;;;9.52;;
69188;SDS011;56302;52.322;5.926;2023-02-11T05:53:21;30.03;;;9.57;;
69188;SDS011;56302;52.322;5.926;2023-02-11T05:55:46;26.50;;;9.57;;
69188;SDS011;56302;52.322;5.926;2023-02-11T05:58:12;32.05;;;10.15;;
69188;SDS011;56302;52.322;5.926;2023-02-11T06:00:37;23.93;;;9.13;;
69188;SDS011;56302;52.322;5.926;2023-02-11T06:03:03;30.58;;;10.45;;
69188;SDS011;56302;52.322;5.926;2023-02-11T06:05:29;27.60;;;9.53;;
69188;SDS011;56302;52.322;5.926;2023-02-11T06:07:55;29.27;;;9.85;;
69188;SDS011;56302;52.322;5.926;2023-02-11T06:10:21;26.33;;;11.70;;
69188;SDS011;56302;52.322;5.926;2023-02-11T06:12:46;27.55;;;10.73;;
69188;SDS011;56302;52.322;5.926;2023-02-11T06:15:12;29.83;;;10.30;;
69188;SDS011;56302;52.322;5.926;2023-02-11T06:17:37;32.30;;;12.40;;
69188;SDS011;56302;52.322;5.926;2023-02-11T06:20:04;30.27;;;11.17;;
69188;SDS011;56302;52.322;5.926;2023-02-11T06:22:31;36.55;;;11.75;;
69188;SDS011;56302;52.322;5.926;2023-02-11T06:24:57;30.23;;;11.90;;
69188;SDS011;56302;52.322;5.926;2023-02-11T06:27:22;31.13;;;11.60;;
69188;SDS011;56302;52.322;5.926;2023-02-11T06:29:48;32.53;;;11.82;;
69188;SDS011;56302;52.322;5.926;2023-02-11T06:32:16;34.30;;;13.05;;
69188;SDS011;56302;52.322;5.926;2023-02-11T06:34:41;26.10;;;11.27;;
69188;SDS011;56302;52.322;5.926;2023-02-11T06:37:07;29.90;;;12.60;;
69188;SDS011;56302;52.322;5.926;2023-02-11T06:39:32;32.95;;;12.82;;
69188;SDS011;56302;52.322;5.926;2023-02-11T06:41:58;38.03;;;12.90;;
69188;SDS011;56302;52.322;5.926;2023-02-11T06:44:23;31.53;;;13.60;;
69188;SDS011;56302;52.322;5.926;2023-02-11T06:46:49;32.20;;;12.70;;
69188;SDS011;56302;52.322;5.926;2023-02-11T06:49:15;35.40;;;13.93;;
69188;SDS011;56302;52.322;5.926;2023-02-11T06:51:40;32.67;;;13.32;;
69188;SDS011;56302;52.322;5.926;2023-02-11T06:54:06;37.50;;;14.10;;
69188;SDS011;56302;52.322;5.926;2023-02-11T06:56:32;32.03;;;13.18;;
69188;SDS011;56302;52.322;5.926;2023-02-11T06:58:58;31.20;;;13.13;;
69188;SDS011;56302;52.322;5.926;2023-02-11T07:01:24;31.77;;;13.15;;
69188;SDS011;56302;52.322;5.926;2023-02-11T07:03:51;41.95;;;15.10;;
69188;SDS011;56302;52.322;5.926;2023-02-11T07:06:19;33.13;;;13.20;;
69188;SDS011;56302;52.322;5.926;2023-02-11T07:08:45;36.87;;;13.27;;
69188;SDS011;56302;52.322;5.926;2023-02-11T07:11:13;34.08;;;14.25;;
69188;SDS011;56302;52.322;5.926;2023-02-11T07:13:41;40.97;;;13.38;;
69188;SDS011;56302;52.322;5.926;2023-02-11T07:16:07;37.40;;;15.15;;
69188;SDS011;56302;52.322;5.926;2023-02-11T07:18:36;38.42;;;15.02;;
69188;SDS011;56302;52.322;5.926;2023-02-11T07:21:05;35.17;;;14.40;;
69188;SDS011;56302;52.322;5.926;2023-02-11T07:23:32;38.35;;;15.32;;
69188;SDS011;56302;52.322;5.926;2023-02-11T07:26:05;39.47;;;15.43;;
69188;SDS011;56302;52.322;5.926;2023-02-11T07:28:32;34.22;;;14.55;;
69188;SDS011;56302;52.322;5.926;2023-02-11T07:30:59;31.27;;;13.40;;
69188;SDS011;56302;52.322;5.926;2023-02-11T07:33:33;39.50;;;14.85;;
69188;SDS011;56302;52.322;5.926;2023-02-11T07:36:00;33.85;;;14.15;;
69188;SDS011;56302;52.322;5.926;2023-02-11T07:38:26;37.47;;;15.18;;
69188;SDS011;56302;52.322;5.926;2023-02-11T07:40:51;39.03;;;15.52;;
69188;SDS011;56302;52.322;5.926;2023-02-11T07:43:17;41.40;;;15.20;;
69188;SDS011;56302;52.322;5.926;2023-02-11T07:45:42;36.83;;;15.93;;
69188;SDS011;56302;52.322;5.926;2023-02-11T07:48:08;34.90;;;15.65;;
69188;SDS011;56302;52.322;5.926;2023-02-11T07:50:33;36.93;;;15.77;;
69188;SDS011;56302;52.322;5.926;2023-02-11T07:52:59;41.17;;;15.97;;
69188;SDS011;56302;52.322;5.926;2023-02-11T07:55:24;35.08;;;15.15;;
69188;SDS011;56302;52.322;5.926;2023-02-11T07:57:50;34.00;;;14.40;;
69188;SDS011;56302;52.322;5.926;2023-02-11T08:00:15;32.60;;;14.03;;
69188;SDS011;56302;52.322;5.926;2023-02-11T08:02:41;39.22;;;14.73;;
69188;SDS011;56302;52.322;5.926;2023-02-11T08:05:07;31.13;;;14.05;;
69188;SDS011;56302;52.322;5.926;2023-02-11T08:07:32;33.97;;;15.50;;
69188;SDS011;56302;52.322;5.926;2023-02-11T08:09:58;36.03;;;15.27;;
69188;SDS011;56302;52.322;5.926;2023-02-11T08:12:23;38.75;;;14.88;;
69188;SDS011;56302;52.322;5.926;2023-02-11T08:14:49;36.27;;;14.57;;
69188;SDS011;56302;52.322;5.926;2023-02-11T08:17:15;35.20;;;15.02;;
69188;SDS011;56302;52.322;5.926;2023-02-11T08:19:41;31.67;;;14.00;;
69188;SDS011;56302;52.322;5.926;2023-02-11T08:22:06;35.35;;;14.43;;
69188;SDS011;56302;52.322;5.926;2023-02-11T08:24:32;31.80;;;14.53;;
69188;SDS011;56302;52.322;5.926;2023-02-11T08:26:57;38.77;;;15.00;;
69188;SDS011;56302;52.322;5.926;2023-02-11T08:29:23;35.65;;;14.65;;
69188;SDS011;56302;52.322;5.926;2023-02-11T08:31:49;35.00;;;14.60;;
69188;SDS011;56302;52.322;5.926;2023-02-11T08:34:14;36.77;;;14.67;;
69188;SDS011;56302;52.322;5.926;2023-02-11T08:36:42;34.38;;;13.48;;
69188;SDS011;56302;52.322;5.926;2023-02-11T08:39:16;29.63;;;13.77;;
69188;SDS011;56302;52.322;5.926;2023-02-11T08:41:43;32.28;;;13.75;;
69188;SDS011;56302;52.322;5.926;2023-02-11T08:44:09;36.67;;;14.68;;
69188;SDS011;56302;52.322;5.926;2023-02-11T08:46:35;31.73;;;14.13;;
69188;SDS011;56302;52.322;5.926;2023-02-11T08:49:00;33.83;;;13.40;;
69188;SDS011;56302;52.322;5.926;2023-02-11T08:51:27;29.05;;;13.75;;
69188;SDS011;56302;52.322;5.926;2023-02-11T08:53:57;30.20;;;12.93;;
69188;SDS011;56302;52.322;5.926;2023-02-11T08:56:23;33.63;;;14.05;;
69188;SDS011;56302;52.322;5.926;2023-02-11T08:58:50;25.55;;;13.27;;
69188;SDS011;56302;52.322;5.926;2023-02-11T09:01:20;31.67;;;14.35;;
69188;SDS011;56302;52.322;5.926;2023-02-11T09:03:52;29.80;;;13.82;;
69188;SDS011;56302;52.322;5.926;2023-02-11T09:06:19;29.73;;;13.07;;
69188;SDS011;56302;52.322;5.926;2023-02-11T09:08:46;28.15;;;13.30;;
69188;SDS011;56302;52.322;5.926;2023-02-11T09:11:14;31.48;;;13.30;;
69188;SDS011;56302;52.322;5.926;2023-02-11T09:13:41;28.38;;;12.73;;
69188;SDS011;56302;52.322;5.926;2023-02-11T09:16:08;25.70;;;13.00;;
69188;SDS011;56302;52.322;5.926;2023-02-11T09:18:39;29.70;;;12.87;;
69188;SDS011;56302;52.322;5.926;2023-02-11T09:21:06;29.02;;;12.52;;
69188;SDS011;56302;52.322;5.926;2023-02-11T09:23:32;33.28;;;13.90;;
69188;SDS011;56302;52.322;5.926;2023-02-11T09:26:04;35.77;;;14.13;;
69188;SDS011;56302;52.322;5.926;2023-02-11T09:28:50;27.40;;;12.07;;
69188;SDS011;56302;52.322;5.926;2023-02-11T09:31:17;31.17;;;13.55;;
69188;SDS011;56302;52.322;5.926;2023-02-11T09:33:47;32.05;;;13.60;;
69188;SDS011;56302;52.322;5.926;2023-02-11T09:36:18;34.47;;;13.10;;
69188;SDS011;56302;52.322;5.926;2023-02-11T09:38:45;28.90;;;13.00;;
69188;SDS011;56302;52.322;5.926;2023-02-11T09:43:56;25.10;;;11.82;;
69188;SDS011;56302;52.322;5.926;2023-02-11T09:46:24;25.30;;;12.13;;
69188;SDS011;56302;52.322;5.926;2023-02-11T09:48:55;27.37;;;13.70;;
69188;SDS011;56302;52.322;5.926;2023-02-11T09:54:28;27.10;;;12.65;;
69188;SDS011;56302;52.322;5.926;2023-02-11T09:56:59;27.38;;;12.70;;
69188;SDS011;56302;52.322;5.926;2023-02-11T09:59:25;29.10;;;12.40;;
69188;SDS011;56302;52.322;5.926;2023-02-11T10:02:01;26.60;;;11.37;;
69188;SDS011;56302;52.322;5.926;2023-02-11T10:08:07;24.20;;;11.70;;
69188;SDS011;56302;52.322;5.926;2023-02-11T10:15:53;23.35;;;10.98;;
69188;SDS011;56302;52.322;5.926;2023-02-11T10:23:59;22.17;;;10.57;;
69188;SDS011;56302;52.322;5.926;2023-02-11T10:26:29;25.70;;;10.13;;
69188;SDS011;56302;52.322;5.926;2023-02-11T10:28:57;23.10;;;10.68;;
69188;SDS011;56302;52.322;5.926;2023-02-11T10:31:27;21.97;;;9.90;;
69188;SDS011;56302;52.322;5.926;2023-02-11T10:34:01;22.80;;;10.25;;
69188;SDS011;56302;52.322;5.926;2023-02-11T10:36:37;22.13;;;10.52;;
69188;SDS011;56302;52.322;5.926;2023-02-11T10:39:17;21.10;;;10.00;;
69188;SDS011;56302;52.322;5.926;2023-02-11T10:42:07;21.23;;;10.50;;
69188;SDS011;56302;52.322;5.926;2023-02-11T10:44:37;20.92;;;10.07;;
69188;SDS011;56302;52.322;5.926;2023-02-11T10:47:13;21.15;;;10.18;;
69188;SDS011;56302;52.322;5.926;2023-02-11T10:49:44;19.75;;;9.38;;
69188;SDS011;56302;52.322;5.926;2023-02-11T10:52:17;21.55;;;9.48;;
69188;SDS011;56302;52.322;5.926;2023-02-11T10:55:00;22.27;;;9.82;;
69188;SDS011;56302;52.322;5.926;2023-02-11T10:57:42;19.67;;;9.27;;
69188;SDS011;56302;52.322;5.926;2023-02-11T11:02:54;19.08;;;8.88;;
69188;SDS011;56302;52.322;5.926;2023-02-11T11:05:26;21.42;;;9.10;;
69188;SDS011;56302;52.322;5.926;2023-02-11T11:08:10;21.25;;;8.88;;
69188;SDS011;56302;52.322;5.926;2023-02-11T11:10:43;20.10;;;8.57;;
69188;SDS011;56302;52.322;5.926;2023-02-11T11:13:31;20.23;;;8.45;;
69188;SDS011;56302;52.322;5.926;2023-02-11T11:18:38;15.82;;;8.30;;
69188;SDS011;56302;52.322;5.926;2023-02-11T11:21:10;16.40;;;7.50;;
69188;SDS011;56302;52.322;5.926;2023-02-11T11:23:38;15.93;;;8.32;;
69188;SDS011;56302;52.322;5.926;2023-02-11T11:26:14;17.40;;;8.70;;
69188;SDS011;56302;52.322;5.926;2023-02-11T11:31:22;14.80;;;7.60;;
69188;SDS011;56302;52.322;5.926;2023-02-11T11:33:51;18.00;;;7.82;;
69188;SDS011;56302;52.322;5.926;2023-02-11T11:36:20;20.27;;;7.82;;
69188;SDS011;56302;52.322;5.926;2023-02-11T11:38:56;18.65;;;7.25;;
69188;SDS011;56302;52.322;5.926;2023-02-11T11:44:02;15.23;;;7.75;;
69188;SDS011;56302;52.322;5.926;2023-02-11T11:46:30;14.93;;;7.80;;
69188;SDS011;56302;52.322;5.926;2023-02-11T11:49:10;17.23;;;7.00;;
69188;SDS011;56302;52.322;5.926;2023-02-11T11:54:38;11.00;;;6.60;;
69188;SDS011;56302;52.322;5.926;2023-02-11T11:57:10;15.32;;;7.05;;
69188;SDS011;56302;52.322;5.926;2023-02-11T11:59:40;14.13;;;7.03;;
69188;SDS011;56302;52.322;5.926;2023-02-11T12:05:12;13.82;;;6.47;;
69188;SDS011;56302;52.322;5.926;2023-02-11T12:08:07;10.15;;;6.03;;
69188;SDS011;56302;52.322;5.926;2023-02-11T12:10:59;15.07;;;6.90;;
69188;SDS011;56302;52.322;5.926;2023-02-11T12:13:41;12.43;;;6.43;;
69188;SDS011;56302;52.322;5.926;2023-02-11T12:16:24;14.60;;;6.57;;
69188;SDS011;56302;52.322;5.926;2023-02-11T12:19:19;13.57;;;5.63;;
69188;SDS011;56302;52.322;5.926;2023-02-11T12:27:17;18.90;;;6.28;;
69188;SDS011;56302;52.322;5.926;2023-02-11T12:32:44;10.63;;;5.90;;
69188;SDS011;56302;52.322;5.926;2023-02-11T12:38:02;11.18;;;5.68;;
69188;SDS011;56302;52.322;5.926;2023-02-11T12:40:59;9.55;;;4.88;;
69188;SDS011;56302;52.322;5.926;2023-02-11T12:43:42;12.13;;;4.72;;
69188;SDS011;56302;52.322;5.926;2023-02-11T12:57:39;10.60;;;5.40;;
69188;SDS011;56302;52.322;5.926;2023-02-11T12:59:52;10.88;;;4.60;;
69188;SDS011;56302;52.322;5.926;2023-02-11T13:04:52;10.47;;;4.50;;
69188;SDS011;56302;52.322;5.926;2023-02-11T13:07:22;13.25;;;5.40;;
69188;SDS011;56302;52.322;5.926;2023-02-11T13:10:39;12.93;;;4.80;;
69188;SDS011;56302;52.322;5.926;2023-02-11T13:12:42;10.27;;;5.10;;
69188;SDS011;56302;52.322;5.926;2023-02-11T13:15:29;12.02;;;5.30;;
69188;SDS011;56302;52.322;5.926;2023-02-11T13:18:00;10.67;;;5.57;;
69188;SDS011;56302;52.322;5.926;2023-02-11T13:20:40;10.45;;;5.15;;
69188;SDS011;56302;52.322;5.926;2023-02-11T13:25:47;10.65;;;5.28;;
69188;SDS011;56302;52.322;5.926;2023-02-11T13:28:47;8.15;;;4.63;;
69188;SDS011;56302;52.322;5.926;2023-02-11T13:31:22;10.20;;;4.47;;
69188;SDS011;56302;52.322;5.926;2023-02-11T13:33:51;10.10;;;4.97;;
69188;SDS011;56302;52.322;5.926;2023-02-11T13:39:18;12.73;;;5.10;;
69188;SDS011;56302;52.322;5.926;2023-02-11T13:41:43;11.40;;;5.88;;
69188;SDS011;56302;52.322;5.926;2023-02-11T13:44:17;10.57;;;4.93;;
69188;SDS011;56302;52.322;5.926;2023-02-11T13:46:48;13.65;;;4.95;;
69188;SDS011;56302;52.322;5.926;2023-02-11T13:49:23;11.55;;;4.40;;
69188;SDS011;56302;52.322;5.926;2023-02-11T13:51:53;13.00;;;4.65;;
69188;SDS011;56302;52.322;5.926;2023-02-11T13:54:27;11.88;;;5.15;;
69188;SDS011;56302;52.322;5.926;2023-02-11T13:59:47;11.45;;;4.80;;
69188;SDS011;56302;52.322;5.926;2023-02-11T14:08:30;14.65;;;5.20;;
69188;SDS011;56302;52.322;5.926;2023-02-11T14:10:55;10.40;;;5.38;;
69188;SDS011;56302;52.322;5.926;2023-02-11T14:29:17;13.95;;;4.32;;
69188;SDS011;56302;52.322;5.926;2023-02-11T14:37:32;10.80;;;3.72;;
69188;SDS011;56302;52.322;5.926;2023-02-11T14:43:00;7.57;;;3.70;;
69188;SDS011;56302;52.322;5.926;2023-02-11T14:45:35;9.57;;;3.85;;
69188;SDS011;56302;52.322;5.926;2023-02-11T14:48:02;8.25;;;4.20;;
69188;SDS011;56302;52.322;5.926;2023-02-11T14:53:01;7.60;;;3.95;;
69188;SDS011;56302;52.322;5.926;2023-02-11T15:00:49;6.50;;;3.67;;
69188;SDS011;56302;52.322;5.926;2023-02-11T15:03:30;8.35;;;3.70;;
69188;SDS011;56302;52.322;5.926;2023-02-11T15:06:20;7.53;;;3.40;;
69188;SDS011;56302;52.322;5.926;2023-02-11T15:08:52;10.50;;;3.90;;
69188;SDS011;56302;52.322;5.926;2023-02-11T15:11:21;8.15;;;3.50;;
69188;SDS011;56302;52.322;5.926;2023-02-11T15:13:49;11.27;;;3.53;;
69188;SDS011;56302;52.322;5.926;2023-02-11T15:16:16;10.65;;;3.10;;
69188;SDS011;56302;52.322;5.926;2023-02-11T15:18:52;11.93;;;3.65;;
69188;SDS011;56302;52.322;5.926;2023-02-11T15:21:21;10.20;;;3.60;;
69188;SDS011;56302;52.322;5.926;2023-02-11T15:23:55;12.65;;;3.47;;
69188;SDS011;56302;52.322;5.926;2023-02-11T15:26:30;11.43;;;3.72;;
69188;SDS011;56302;52.322;5.926;2023-02-11T15:28:56;9.23;;;3.15;;
69188;SDS011;56302;52.322;5.926;2023-02-11T15:31:23;10.60;;;3.67;;
69188;SDS011;56302;52.322;5.926;2023-02-11T15:33:50;9.93;;;3.10;;
69188;SDS011;56302;52.322;5.926;2023-02-11T15:36:17;6.47;;;3.75;;
69188;SDS011;56302;52.322;5.926;2023-02-11T15:38:44;7.75;;;3.75;;
69188;SDS011;56302;52.322;5.926;2023-02-11T15:41:31;5.97;;;3.33;;
69188;SDS011;56302;52.322;5.926;2023-02-11T15:43:59;11.50;;;3.53;;
69188;SDS011;56302;52.322;5.926;2023-02-11T15:46:24;10.13;;;3.27;;
69188;SDS011;56302;52.322;5.926;2023-02-11T15:49:02;7.05;;;3.65;;
69188;SDS011;56302;52.322;5.926;2023-02-11T15:51:28;12.88;;;3.08;;
69188;SDS011;56302;52.322;5.926;2023-02-11T15:54:22;10.20;;;3.20;;
69188;SDS011;56302;52.322;5.926;2023-02-11T15:56:49;7.00;;;3.17;;
69188;SDS011;56302;52.322;5.926;2023-02-11T16:01:42;8.73;;;3.28;;
69188;SDS011;56302;52.322;5.926;2023-02-11T16:04:19;9.68;;;3.42;;
69188;SDS011;56302;52.322;5.926;2023-02-11T16:06:47;10.50;;;3.17;;
69188;SDS011;56302;52.322;5.926;2023-02-11T16:14:29;8.20;;;3.00;;
69188;SDS011;56302;52.322;5.926;2023-02-11T16:16:58;7.57;;;3.22;;
69188;SDS011;56302;52.322;5.926;2023-02-11T16:19:27;7.13;;;3.30;;
69188;SDS011;56302;52.322;5.926;2023-02-11T16:21:54;9.07;;;3.47;;
69188;SDS011;56302;52.322;5.926;2023-02-11T16:24:23;13.70;;;3.60;;
69188;SDS011;56302;52.322;5.926;2023-02-11T16:26:52;11.45;;;3.10;;
69188;SDS011;56302;52.322;5.926;2023-02-11T16:29:27;12.15;;;3.70;;
69188;SDS011;56302;52.322;5.926;2023-02-11T16:34:51;8.60;;;3.38;;
69188;SDS011;56302;52.322;5.926;2023-02-11T16:37:18;10.50;;;3.30;;
69188;SDS011;56302;52.322;5.926;2023-02-11T16:39:43;10.20;;;3.67;;
69188;SDS011;56302;52.322;5.926;2023-02-11T16:42:10;8.47;;;3.60;;
69188;SDS011;56302;52.322;5.926;2023-02-11T16:44:35;7.97;;;3.03;;
69188;SDS011;56302;52.322;5.926;2023-02-11T16:47:02;7.90;;;3.10;;
69188;SDS011;56302;52.322;5.926;2023-02-11T16:49:30;8.93;;;4.50;;
69188;SDS011;56302;52.322;5.926;2023-02-11T16:51:59;8.23;;;3.72;;
69188;SDS011;56302;52.322;5.926;2023-02-11T16:54:29;13.88;;;3.80;;
69188;SDS011;56302;52.322;5.926;2023-02-11T16:56:54;10.93;;;3.30;;
69188;SDS011;56302;52.322;5.926;2023-02-11T16:59:20;11.90;;;3.40;;
69188;SDS011;56302;52.322;5.926;2023-02-11T17:01:46;10.07;;;3.50;;
69188;SDS011;56302;52.322;5.926;2023-02-11T17:04:15;9.75;;;3.60;;
69188;SDS011;56302;52.322;5.926;2023-02-11T17:06:49;9.65;;;3.55;;
69188;SDS011;56302;52.322;5.926;2023-02-11T17:09:15;10.53;;;4.10;;
69188;SDS011;56302;52.322;5.926;2023-02-11T17:11:43;11.15;;;3.13;;
69188;SDS011;56302;52.322;5.926;2023-02-11T17:14:09;11.33;;;3.43;;